createdAt,value
2022-09-17T00:00:16.778Z,98617.13
2022-09-17T00:02:19.088Z,98608.97
2022-09-17T00:04:21.572Z,98600.06
2022-09-17T00:06:25.586Z,98591.88
2022-09-17T00:08:28.170Z,98591.88
2022-09-17T00:10:30.256Z,98610.09
2022-09-17T00:12:32.733Z,98603.06
2022-09-17T00:14:35.502Z,98616.06
2022-09-17T00:16:42.020Z,98620.94
2022-09-17T00:18:44.529Z,98620.66
2022-09-17T00:20:47.637Z,98619.34
2022-09-17T00:22:49.898Z,98625.22
2022-09-17T00:24:52.645Z,98631.25
2022-09-17T00:26:55.397Z,98624.81
2022-09-17T00:28:58.655Z,98636.56
2022-09-17T00:31:00.887Z,98631.09
2022-09-17T00:33:03.025Z,98627.13
2022-09-17T00:35:06.114Z,98617.81
2022-09-17T00:37:08.356Z,98622.13
2022-09-17T00:39:12.435Z,98609.78
2022-09-17T00:41:14.788Z,98617.94
2022-09-17T00:43:42.366Z,98613.59
2022-09-17T00:45:44.683Z,98614.75
2022-09-17T00:48:04.396Z,98615.03
2022-09-17T00:50:17.748Z,98607.00
2022-09-17T00:52:26.073Z,98608.75
2022-09-17T00:54:29.012Z,98611.31
2022-09-17T00:56:34.165Z,98610.47
2022-09-17T00:58:41.090Z,98605.00
2022-09-17T01:00:47.423Z,98611.59
2022-09-17T01:02:49.960Z,98606.13
2022-09-17T01:04:52.126Z,98606.75
2022-09-17T01:07:43.179Z,98593.09
2022-09-17T01:10:07.018Z,98596.53
2022-09-17T01:12:29.000Z,98598.38
2022-09-17T01:14:47.807Z,98597.06
2022-09-17T01:17:05.109Z,98598.66
2022-09-17T01:19:08.524Z,98598.53
2022-09-17T01:21:29.374Z,98593.81
2022-09-17T01:23:34.152Z,98594.94
2022-09-17T01:25:54.942Z,98593.78
2022-09-17T01:28:15.828Z,98591.63
2022-09-17T01:30:56.244Z,98590.44
2022-09-17T01:33:14.010Z,98593.31
2022-09-17T01:35:48.034Z,98593.31
2022-09-17T01:38:33.524Z,98595.19
2022-09-17T01:41:07.914Z,98589.75
2022-09-17T01:43:15.270Z,98590.59
2022-09-17T01:45:39.581Z,98578.69
2022-09-17T01:47:57.245Z,98577.09
2022-09-17T01:50:05.350Z,98576.81
2022-09-17T01:52:11.348Z,98575.25
2022-09-17T01:54:17.860Z,98571.81
2022-09-17T01:56:25.262Z,98580.09
2022-09-17T01:58:31.829Z,98570.34
2022-09-17T02:00:34.468Z,98565.31
2022-09-17T02:02:58.502Z,98568.03
2022-09-17T02:05:10.591Z,98557.16
2022-09-17T02:07:23.139Z,98561.31
2022-09-17T02:09:33.198Z,98561.06
2022-09-17T02:11:39.358Z,98563.91
2022-09-17T02:13:48.870Z,98561.06
2022-09-17T02:16:14.398Z,98561.44
2022-09-17T02:18:37.808Z,98565.19
2022-09-17T02:20:48.647Z,98567.28
2022-09-17T02:22:58.119Z,98567.06
2022-09-17T02:25:20.490Z,98567.19
2022-09-17T02:27:31.301Z,98577.66
2022-09-17T02:29:39.931Z,98568.31
2022-09-17T02:31:42.648Z,98582.25
2022-09-17T02:33:52.071Z,98582.66
2022-09-17T02:35:54.338Z,98583.22
2022-09-17T02:37:57.225Z,98574.22
2022-09-17T02:39:59.364Z,98568.31
2022-09-17T02:42:20.003Z,98565.31
2022-09-17T02:44:55.757Z,98561.56
2022-09-17T02:47:16.673Z,98565.47
2022-09-17T02:49:21.770Z,98561.28
2022-09-17T02:51:47.680Z,98563.53
2022-09-17T02:53:58.165Z,98561.09
2022-09-17T02:56:14.729Z,98556.22
2022-09-17T02:58:17.024Z,98568.44
2022-09-17T03:00:21.669Z,98569.91
2022-09-17T03:02:30.361Z,98572.91
2022-09-17T03:04:34.200Z,98587.31
2022-09-17T03:06:36.694Z,98592.47
2022-09-17T03:08:42.198Z,98589.16
2022-09-17T03:10:44.936Z,98588.88
2022-09-17T03:12:47.615Z,98586.31
2022-09-17T03:14:49.600Z,98590.47
2022-09-17T03:16:51.762Z,98595.94
2022-09-17T03:18:53.853Z,98593.09
2022-09-17T03:20:58.196Z,98595.81
2022-09-17T03:23:00.167Z,98592.22
2022-09-17T03:25:02.126Z,98599.50
2022-09-17T03:27:04.432Z,98591.50
2022-09-17T03:29:06.642Z,98595.34
2022-09-17T03:31:08.876Z,98584.31
2022-09-17T03:33:11.519Z,98581.75
2022-09-17T03:35:13.647Z,98577.03
2022-09-17T03:37:15.749Z,98571.44
2022-09-17T03:39:18.048Z,98570.44
2022-09-17T03:41:20.569Z,98566.13
2022-09-17T03:43:23.886Z,98565.25
2022-09-17T03:45:25.891Z,98561.84
2022-09-17T03:47:28.409Z,98560.09
2022-09-17T03:49:30.623Z,98550.94
2022-09-17T03:51:33.846Z,98552.06
2022-09-17T03:53:35.720Z,98536.88
2022-09-17T03:55:41.323Z,98539.59
2022-09-17T03:57:43.569Z,98531.84
2022-09-17T03:59:45.539Z,98534.22
2022-09-17T04:01:47.842Z,98535.53
2022-09-17T04:03:50.188Z,98535.69
2022-09-17T04:05:52.151Z,98527.53
2022-09-17T04:07:54.216Z,98531.00
2022-09-17T04:09:56.285Z,98517.38
2022-09-17T04:11:58.920Z,98517.22
2022-09-17T04:14:01.027Z,98520.81
2022-09-17T04:16:03.756Z,98513.78
2022-09-17T04:18:06.347Z,98504.75
2022-09-17T04:20:09.009Z,98512.78
2022-09-17T04:22:14.108Z,98512.63
2022-09-17T04:24:16.157Z,98523.69
2022-09-17T04:26:18.743Z,98508.50
2022-09-17T04:28:20.945Z,98515.91
2022-09-17T04:30:23.455Z,98519.66
2022-09-17T04:32:25.393Z,98520.78
2022-09-17T04:34:27.566Z,98521.00
2022-09-17T04:36:29.805Z,98518.44
2022-09-17T04:38:33.752Z,98516.09
2022-09-17T04:40:38.111Z,98528.22
2022-09-17T04:42:40.326Z,98539.53
2022-09-17T04:44:42.345Z,98534.09
2022-09-17T04:46:47.401Z,98537.69
2022-09-17T04:48:49.535Z,98531.50
2022-09-17T04:50:51.967Z,98526.91
2022-09-17T04:52:54.215Z,98531.31
2022-09-17T04:54:56.478Z,98525.69
2022-09-17T04:57:00.471Z,98530.50
2022-09-17T04:59:03.010Z,98516.91
2022-09-17T05:01:05.243Z,98516.78
2022-09-17T05:03:07.338Z,98512.78
2022-09-17T05:05:09.610Z,98505.09
2022-09-17T05:07:13.832Z,98509.94
2022-09-17T05:09:16.362Z,98510.28
2022-09-17T05:11:18.914Z,98504.56
2022-09-17T05:13:20.971Z,98517.56
2022-09-17T05:15:24.806Z,98504.50
2022-09-17T05:17:26.792Z,98494.75
2022-09-17T05:19:29.104Z,98492.03
2022-09-17T05:21:31.545Z,98499.34
2022-09-17T05:23:33.490Z,98490.16
2022-09-17T05:25:37.199Z,98488.66
2022-09-17T05:27:40.232Z,98500.69
2022-09-17T05:29:42.589Z,98510.22
2022-09-17T05:31:44.887Z,98512.31
2022-09-17T05:33:46.811Z,98517.53
2022-09-17T05:35:49.460Z,98517.38
2022-09-17T05:37:51.535Z,98515.50
2022-09-17T05:39:53.904Z,98514.66
2022-09-17T05:41:56.452Z,98502.66
2022-09-17T05:43:58.996Z,98497.59
2022-09-17T05:46:06.106Z,98495.56
2022-09-17T05:48:15.095Z,98500.94
2022-09-17T05:50:17.424Z,98503.66
2022-09-17T05:52:20.106Z,98514.38
2022-09-17T05:54:22.269Z,98515.97
2022-09-17T05:56:24.592Z,98519.16
2022-09-17T05:58:27.470Z,98522.03
2022-09-17T06:00:30.198Z,98519.88
2022-09-17T06:02:32.524Z,98516.63
2022-09-17T06:04:37.122Z,98512.22
2022-09-17T06:06:41.752Z,98512.47
2022-09-17T06:08:44.211Z,98510.34
2022-09-17T06:10:46.454Z,98495.81
2022-09-17T06:12:56.356Z,98500.41
2022-09-17T06:14:58.620Z,98501.59
2022-09-17T06:17:01.078Z,98506.31
2022-09-17T06:19:04.573Z,98499.28
2022-09-17T06:21:07.171Z,98502.47
2022-09-17T06:23:12.774Z,98499.34
2022-09-17T06:25:20.193Z,98499.19
2022-09-17T06:27:22.463Z,98500.88
2022-09-17T06:29:24.828Z,98511.47
2022-09-17T06:31:27.260Z,98505.91
2022-09-17T06:33:31.715Z,98503.94
2022-09-17T06:35:37.405Z,98510.50
2022-09-17T06:37:41.059Z,98504.44
2022-09-17T06:39:43.772Z,98506.03
2022-09-17T06:41:46.478Z,98497.28
2022-09-17T06:43:59.481Z,98502.47
2022-09-17T06:46:06.379Z,98502.59
2022-09-17T06:48:08.537Z,98514.06
2022-09-17T06:50:11.260Z,98514.38
2022-09-17T06:52:13.691Z,98513.00
2022-09-17T06:54:15.877Z,98519.88
2022-09-17T06:56:20.245Z,98526.34
2022-09-17T06:58:23.644Z,98539.78
2022-09-17T07:00:30.734Z,98547.53
2022-09-17T07:02:33.170Z,98542.56
2022-09-17T07:04:35.519Z,98543.31
2022-09-17T07:06:40.788Z,98551.47
2022-09-17T07:08:43.017Z,98542.56
2022-09-17T07:10:47.887Z,98533.44
2022-09-17T07:12:50.414Z,98526.44
2022-09-17T07:14:52.980Z,98535.03
2022-09-17T07:16:55.305Z,98541.13
2022-09-17T07:18:57.646Z,98534.97
2022-09-17T07:21:02.008Z,98532.03
2022-09-17T07:23:08.957Z,98537.06
2022-09-17T07:25:12.137Z,98548.00
2022-09-17T07:27:14.453Z,98547.44
2022-09-17T07:29:19.217Z,98539.00
2022-09-17T07:31:21.824Z,98552.19
2022-09-17T07:33:29.848Z,98551.34
2022-09-17T07:35:32.186Z,98554.28
2022-09-17T07:37:34.341Z,98561.69
2022-09-17T07:39:36.913Z,98560.56
2022-09-17T07:41:42.138Z,98563.41
2022-09-17T07:43:47.000Z,98552.66
2022-09-17T07:45:50.883Z,98562.81
2022-09-17T07:47:53.063Z,98561.59
2022-09-17T07:49:55.194Z,98569.09
2022-09-17T07:51:58.110Z,98563.47
2022-09-17T07:54:00.924Z,98550.03
2022-09-17T07:56:03.051Z,98546.63
2022-09-17T07:58:05.975Z,98547.94
2022-09-17T08:00:09.774Z,98541.38
2022-09-17T08:02:14.712Z,98529.34
2022-09-17T08:04:17.583Z,98528.03
2022-09-17T08:06:23.346Z,98527.59
2022-09-17T08:08:28.723Z,98518.47
2022-09-17T08:10:34.138Z,98510.56
2022-09-17T08:12:36.445Z,98509.84
2022-09-17T08:15:29.207Z,98499.47
2022-09-17T08:17:31.977Z,98501.63
2022-09-17T08:19:34.105Z,98508.59
2022-09-17T08:21:36.887Z,98513.53
2022-09-17T08:23:41.680Z,98512.84
2022-09-17T08:25:44.006Z,98510.56
2022-09-17T08:27:46.329Z,98510.88
2022-09-17T08:29:48.547Z,98519.34
2022-09-17T08:31:50.852Z,98525.38
2022-09-17T08:33:53.435Z,98518.97
2022-09-17T08:35:59.797Z,98523.09
2022-09-17T08:38:02.614Z,98519.97
2022-09-17T08:40:05.387Z,98519.84
2022-09-17T08:42:18.431Z,98517.97
2022-09-17T08:44:25.573Z,98516.44
2022-09-17T08:46:32.394Z,98516.72
2022-09-17T08:48:53.174Z,98512.28
2022-09-17T08:51:02.445Z,98509.00
2022-09-17T08:53:24.591Z,98518.75
2022-09-17T08:55:47.360Z,98523.78
2022-09-17T08:58:11.206Z,98517.06
2022-09-17T09:00:19.198Z,98517.50
2022-09-17T09:02:43.223Z,98518.47
2022-09-17T09:04:58.544Z,98519.81
2022-09-17T09:07:06.944Z,98518.66
2022-09-17T09:09:15.010Z,98509.63
2022-09-17T09:11:22.829Z,98505.06
2022-09-17T09:13:31.562Z,98500.75
2022-09-17T09:15:43.837Z,98500.03
2022-09-17T09:17:50.095Z,98504.03
2022-09-17T09:19:54.325Z,98494.03
2022-09-17T09:22:06.234Z,98495.00
2022-09-17T09:27:47.791Z,98482.25
2022-09-17T09:30:07.310Z,98484.97
2022-09-17T09:32:23.216Z,98494.31
2022-09-17T09:34:30.136Z,98487.56
2022-09-17T09:36:34.048Z,98481.84
2022-09-17T09:38:43.335Z,98483.53
2022-09-17T09:41:01.222Z,98488.44
2022-09-17T09:44:09.938Z,98495.75
2022-09-17T09:46:47.523Z,98500.19
2022-09-17T09:49:19.036Z,98493.03
2022-09-17T09:51:33.099Z,98484.84
2022-09-17T09:53:41.191Z,98486.44
2022-09-17T09:55:53.666Z,98487.84
2022-09-17T09:58:03.751Z,98496.31
2022-09-17T10:00:26.293Z,98493.28
2022-09-17T10:02:28.767Z,98487.28
2022-09-17T10:04:33.108Z,98494.56
2022-09-17T10:06:36.314Z,98490.69
2022-09-17T10:08:41.288Z,98481.25
2022-09-17T10:11:01.890Z,98482.81
2022-09-17T10:13:15.178Z,98484.38
2022-09-17T10:15:28.782Z,98489.84
2022-09-17T10:17:34.161Z,98507.19
2022-09-17T10:19:39.326Z,98504.63
2022-09-17T10:21:43.701Z,98504.31
2022-09-17T10:23:46.243Z,98505.91
2022-09-17T10:25:49.443Z,98512.38
2022-09-17T10:27:51.989Z,98526.16
2022-09-17T10:30:17.410Z,98530.31
2022-09-17T10:32:22.465Z,98532.63
2022-09-17T10:34:26.104Z,98527.84
2022-09-17T10:36:46.306Z,98522.88
2022-09-17T10:38:48.923Z,98518.69
2022-09-17T10:40:51.342Z,98513.94
2022-09-17T10:43:29.438Z,98519.97
2022-09-17T10:45:33.538Z,98524.28
2022-09-17T10:47:44.108Z,98525.84
2022-09-17T10:49:58.003Z,98524.88
2022-09-17T10:52:10.431Z,98520.25
2022-09-17T10:54:36.253Z,98530.88
2022-09-17T10:56:50.210Z,98525.59
2022-09-17T10:59:27.844Z,98510.38
2022-09-17T11:01:38.319Z,98498.75
2022-09-17T11:04:06.359Z,98505.03
2022-09-17T11:06:24.926Z,98503.31
2022-09-17T11:09:07.141Z,98504.47
2022-09-17T11:11:20.724Z,98500.88
2022-09-17T11:13:49.703Z,98507.91
2022-09-17T11:16:19.888Z,98506.03
2022-09-17T11:18:36.204Z,98499.00
2022-09-17T11:20:51.155Z,98495.44
2022-09-17T11:23:17.508Z,98493.41
2022-09-17T11:25:47.981Z,98504.47
2022-09-17T11:28:18.194Z,98501.59
2022-09-17T11:30:24.379Z,98498.00
2022-09-17T11:32:52.667Z,98499.44
2022-09-17T11:35:04.104Z,98501.88
2022-09-17T11:37:23.920Z,98507.03
2022-09-17T11:39:45.436Z,98508.63
2022-09-17T11:41:52.541Z,98509.03
2022-09-17T11:44:17.349Z,98485.78
2022-09-17T11:46:25.586Z,98484.94
2022-09-17T11:48:35.622Z,98487.38
2022-09-17T11:51:04.750Z,98487.06
2022-09-17T11:53:35.546Z,98486.06
2022-09-17T11:55:47.047Z,98476.13
2022-09-17T11:58:00.976Z,98468.97
2022-09-17T12:00:18.118Z,98455.00
2022-09-17T12:02:27.276Z,98449.56
2022-09-17T12:04:38.150Z,98456.56
2022-09-17T12:07:22.566Z,98454.69
2022-09-17T12:09:33.309Z,98444.59
2022-09-17T12:11:49.437Z,98439.59
2022-09-17T12:13:56.054Z,98441.56
2022-09-17T12:16:24.381Z,98437.25
2022-09-17T12:18:59.094Z,98430.53
2022-09-17T12:21:05.481Z,98417.31
2022-09-17T12:23:16.451Z,98410.38
2022-09-17T12:25:19.018Z,98404.47
2022-09-17T12:27:35.362Z,98391.03
2022-09-17T12:30:05.397Z,98382.97
2022-09-17T12:32:44.789Z,98380.63
2022-09-17T12:35:22.233Z,98371.56
2022-09-17T12:37:39.544Z,98355.03
2022-09-17T12:40:23.807Z,98347.69
2022-09-17T12:43:02.869Z,98338.19
2022-09-17T12:45:08.323Z,98319.59
2022-09-17T12:47:48.103Z,98325.75
2022-09-17T12:50:19.553Z,98317.09
2022-09-17T12:52:59.318Z,98305.03
2022-09-17T12:55:19.886Z,98296.91
2022-09-17T12:57:29.017Z,98291.78
2022-09-17T12:59:37.308Z,98289.34
2022-09-17T13:01:48.674Z,98279.81
2022-09-17T13:04:19.008Z,98280.84
2022-09-17T13:06:33.462Z,98279.34
2022-09-17T13:09:06.612Z,98291.13
2022-09-17T13:11:41.488Z,98305.50
2022-09-17T13:14:05.292Z,98311.41
2022-09-17T13:16:14.451Z,98316.19
2022-09-17T13:19:16.389Z,98317.34
2022-09-17T13:21:40.431Z,98319.09
2022-09-17T13:23:45.983Z,98314.00
2022-09-17T13:25:55.671Z,98312.13
2022-09-17T13:28:09.847Z,98312.84
2022-09-17T13:30:15.920Z,98308.47
2022-09-17T13:32:33.232Z,98299.22
2022-09-17T13:34:36.488Z,98298.22
2022-09-17T13:37:01.458Z,98304.63
2022-09-17T13:39:06.205Z,98304.84
2022-09-17T13:41:20.930Z,98305.50
2022-09-17T13:43:49.095Z,98303.41
2022-09-17T13:46:00.206Z,98300.03
2022-09-17T13:48:10.870Z,98292.28
2022-09-17T13:50:34.592Z,98298.94
2022-09-17T13:52:44.997Z,98286.50
2022-09-17T13:54:47.471Z,98279.88
2022-09-17T13:57:08.753Z,98278.97
2022-09-17T13:59:16.467Z,98279.19
2022-09-17T14:01:59.132Z,98273.50
2022-09-17T14:04:03.447Z,98270.28
2022-09-17T14:06:05.916Z,98272.31
2022-09-17T14:08:14.572Z,98270.75
2022-09-17T14:10:16.860Z,98265.69
2022-09-17T14:12:44.964Z,98264.06
2022-09-17T14:14:52.355Z,98266.06
2022-09-17T14:16:54.491Z,98260.59
2022-09-17T14:19:02.642Z,98257.56
2022-09-17T14:21:38.258Z,98246.22
2022-09-17T14:23:56.186Z,98230.25
2022-09-17T14:25:58.544Z,98236.56
2022-09-17T14:28:08.220Z,98234.72
2022-09-17T14:30:36.563Z,98226.25
2022-09-17T14:33:02.772Z,98219.25
2022-09-17T14:35:37.266Z,98217.69
2022-09-17T14:37:45.856Z,98212.94
2022-09-17T14:39:51.147Z,98203.69
2022-09-17T14:41:57.709Z,98197.91
2022-09-17T14:44:08.711Z,98197.00
2022-09-17T14:46:20.560Z,98204.03
2022-09-17T14:48:35.301Z,98223.47
2022-09-17T14:50:38.127Z,98215.28
2022-09-17T14:52:40.698Z,98211.69
2022-09-17T14:54:44.791Z,98207.09
2022-09-17T14:56:52.858Z,98215.59
2022-09-17T14:58:56.360Z,98221.53
2022-09-17T15:00:59.907Z,98222.00
2022-09-17T15:03:02.693Z,98214.97
2022-09-17T15:05:27.136Z,98204.00
2022-09-17T15:07:29.509Z,98202.97
2022-09-17T15:09:31.752Z,98208.28
2022-09-17T15:11:44.475Z,98208.09
2022-09-17T15:13:53.918Z,98214.91
2022-09-17T15:15:57.903Z,98211.34
2022-09-17T15:18:00.020Z,98209.59
2022-09-17T15:20:09.185Z,98199.53
2022-09-17T15:22:40.925Z,98190.28
2022-09-17T15:24:57.485Z,98181.25
2022-09-17T15:27:10.572Z,98171.00
2022-09-17T15:29:17.428Z,98174.28
2022-09-17T15:31:20.951Z,98169.28
2022-09-17T15:33:26.662Z,98165.84
2022-09-17T15:35:30.985Z,98154.09
2022-09-17T15:37:33.091Z,98137.84
2022-09-17T15:39:41.081Z,98125.56
2022-09-17T15:41:43.621Z,98122.81
2022-09-17T15:43:47.731Z,98124.84
2022-09-17T15:45:50.131Z,98133.03
2022-09-17T15:47:57.975Z,98140.00
2022-09-17T15:50:14.884Z,98141.63
2022-09-17T15:52:33.148Z,98154.88
2022-09-17T15:54:38.163Z,98137.47
2022-09-17T15:56:41.631Z,98126.03
2022-09-17T15:58:46.893Z,98117.84
2022-09-17T16:01:20.087Z,98108.00
2022-09-17T16:04:02.027Z,98085.63
2022-09-17T16:06:04.911Z,98084.06
2022-09-17T16:08:21.729Z,98089.00
2022-09-17T16:10:23.809Z,98093.28
2022-09-17T16:12:29.032Z,98092.44
2022-09-17T16:14:31.386Z,98104.50
2022-09-17T16:16:36.698Z,98097.63
2022-09-17T16:18:38.840Z,98102.94
2022-09-17T16:20:41.301Z,98112.75
2022-09-17T16:22:50.020Z,98134.72
2022-09-17T16:24:53.353Z,98135.59
2022-09-17T16:26:55.560Z,98122.25
2022-09-17T16:29:08.001Z,98094.19
2022-09-17T16:31:13.592Z,98076.19
2022-09-17T16:33:19.990Z,98069.59
2022-09-17T16:35:24.336Z,98066.47
2022-09-17T16:37:26.449Z,98058.75
2022-09-17T16:39:31.358Z,98042.38
2022-09-17T16:41:33.627Z,98038.88
2022-09-17T16:43:35.965Z,98034.91
2022-09-17T16:45:41.150Z,98026.91
2022-09-17T16:47:43.515Z,98028.94
2022-09-17T16:49:50.966Z,98031.09
2022-09-17T16:51:53.177Z,98038.28
2022-09-17T16:53:58.071Z,98030.69
2022-09-17T16:56:00.352Z,98044.31
2022-09-17T16:58:03.230Z,98052.50
2022-09-17T17:00:09.424Z,98067.00
2022-09-17T17:02:11.727Z,98076.16
2022-09-17T17:04:14.180Z,98071.44
2022-09-17T17:06:17.640Z,98083.50
2022-09-17T17:08:19.797Z,98083.09
2022-09-17T17:10:23.046Z,98097.88
2022-09-17T17:12:26.032Z,98114.09
2022-09-17T17:14:28.204Z,98115.25
2022-09-17T17:16:30.388Z,98110.09
2022-09-17T17:18:32.539Z,98124.19
2022-09-17T17:20:38.349Z,98133.53
2022-09-17T17:22:43.702Z,98135.53
2022-09-17T17:24:46.055Z,98140.25
2022-09-17T17:26:49.151Z,98143.13
2022-09-17T17:28:51.346Z,98135.81
2022-09-17T17:30:56.153Z,98136.25
2022-09-17T17:33:03.466Z,98136.97
2022-09-17T17:35:06.430Z,98124.63
2022-09-17T17:37:08.807Z,98114.75
2022-09-17T17:39:11.157Z,98098.72
2022-09-17T17:41:16.081Z,98113.91
2022-09-17T17:43:18.224Z,98118.19
2022-09-17T17:45:20.553Z,98118.03
2022-09-17T17:47:22.988Z,98105.44
2022-09-17T17:49:25.923Z,98099.00
2022-09-17T17:51:28.366Z,98093.41
2022-09-17T17:53:32.133Z,98087.88
2022-09-17T17:55:34.823Z,98080.84
2022-09-17T17:57:37.142Z,98076.16
2022-09-17T17:59:39.817Z,98063.41
2022-09-17T18:01:42.333Z,98049.38
2022-09-17T18:03:45.015Z,98049.84
2022-09-17T18:05:47.348Z,98039.44
2022-09-17T18:07:50.179Z,98022.84
2022-09-17T18:09:52.728Z,98011.22
2022-09-17T18:11:55.383Z,98003.06
2022-09-17T18:14:01.322Z,98000.94
2022-09-17T18:16:05.070Z,98006.56
2022-09-17T18:18:07.292Z,98021.59
2022-09-17T18:20:10.502Z,98029.22
2022-09-17T18:22:12.904Z,98022.47
2022-09-17T18:24:15.159Z,98021.78
2022-09-17T18:26:20.553Z,98023.34
2022-09-17T18:28:23.321Z,98027.63
2022-09-17T18:30:25.397Z,98033.63
2022-09-17T18:32:27.482Z,98044.22
2022-09-17T18:34:30.051Z,98040.94
2022-09-17T18:36:34.321Z,98045.47
2022-09-17T18:38:40.015Z,98041.91
2022-09-17T18:40:43.472Z,98033.31
2022-09-17T18:42:46.094Z,98033.16
2022-09-17T18:44:49.559Z,98035.41
2022-09-17T18:46:52.169Z,98039.03
2022-09-17T18:48:56.131Z,98037.88
2022-09-17T18:51:04.325Z,98039.03
2022-09-17T18:53:06.584Z,98043.75
2022-09-17T18:55:09.489Z,98045.16
2022-09-17T18:57:14.884Z,98038.56
2022-09-17T18:59:17.079Z,98041.00
2022-09-17T19:01:22.224Z,98025.66
2022-09-17T19:03:24.521Z,98024.09
2022-09-17T19:05:27.204Z,98025.25
2022-09-17T19:07:29.959Z,98019.66
2022-09-17T19:09:31.990Z,98005.66
2022-09-17T19:11:37.412Z,97993.59
2022-09-17T19:13:42.598Z,97997.31
2022-09-17T19:15:50.869Z,97998.78
2022-09-17T19:18:04.378Z,97992.78
2022-09-17T19:20:09.297Z,97977.72
2022-09-17T19:22:12.298Z,97974.69
2022-09-17T19:24:14.623Z,97975.72
2022-09-17T19:26:21.152Z,97977.41
2022-09-17T19:28:24.015Z,97974.59
2022-09-17T19:30:29.325Z,97963.41
2022-09-17T19:32:32.047Z,97955.53
2022-09-17T19:34:36.948Z,97949.69
2022-09-17T19:36:41.994Z,97957.16
2022-09-17T19:38:45.238Z,97962.88
2022-09-17T19:41:01.389Z,97973.81
2022-09-17T19:43:03.817Z,97980.22
2022-09-17T19:45:06.897Z,97990.94
2022-09-17T19:47:09.464Z,97991.97
2022-09-17T19:49:13.986Z,97997.97
2022-09-17T19:51:17.953Z,98000.13
2022-09-17T19:53:20.987Z,98005.88
2022-09-17T19:55:24.778Z,98003.91
2022-09-17T19:57:26.845Z,98007.47
2022-09-17T19:59:29.336Z,98007.56
2022-09-17T20:01:32.064Z,98007.59
2022-09-17T20:03:34.665Z,98022.50
2022-09-17T20:05:37.262Z,98032.22
2022-09-17T20:07:39.330Z,98050.84
2022-09-17T20:09:44.888Z,98040.69
2022-09-17T20:11:47.065Z,98041.00
2022-09-17T20:14:08.983Z,98046.44
2022-09-17T20:16:17.177Z,98048.00
2022-09-17T20:18:23.333Z,98046.97
2022-09-17T20:20:30.755Z,98040.41
2022-09-17T20:22:33.993Z,98037.53
2022-09-17T20:24:36.396Z,98037.69
2022-09-17T20:26:38.804Z,98043.84
2022-09-17T20:28:42.012Z,98039.97
2022-09-17T20:30:44.446Z,98042.56
2022-09-17T20:32:48.182Z,98041.84
2022-09-17T20:34:51.785Z,98044.44
2022-09-17T20:37:06.714Z,98042.25
2022-09-17T20:39:22.300Z,98043.53
2022-09-17T20:41:27.758Z,98047.84
2022-09-17T20:43:36.585Z,98039.56
2022-09-17T20:46:05.006Z,98048.97
2022-09-17T20:48:07.339Z,98045.84
2022-09-17T20:50:10.127Z,98046.56
2022-09-17T20:52:20.421Z,98046.13
2022-09-17T20:54:23.235Z,98034.53
2022-09-17T20:56:35.450Z,98043.41
2022-09-17T20:58:45.585Z,98048.25
2022-09-17T21:00:47.791Z,98050.84
2022-09-17T21:02:54.139Z,98048.28
2022-09-17T21:04:56.812Z,98044.84
2022-09-17T21:06:59.390Z,98043.28
2022-09-17T21:09:02.974Z,98027.69
2022-09-17T21:11:05.575Z,98037.16
2022-09-17T21:13:07.785Z,98047.13
2022-09-17T21:15:10.368Z,98053.72
2022-09-17T21:17:13.019Z,98063.56
2022-09-17T21:19:16.796Z,98058.00
2022-09-17T21:21:19.229Z,98056.28
2022-09-17T21:23:26.070Z,98051.72
2022-09-17T21:25:28.845Z,98034.81
2022-09-17T21:27:32.702Z,98027.25
2022-09-17T21:29:34.807Z,98043.81
2022-09-17T21:31:37.932Z,98053.09
2022-09-17T21:33:42.055Z,98048.19
2022-09-17T21:35:44.575Z,98064.50
2022-09-17T21:37:47.063Z,98073.06
2022-09-17T21:39:49.364Z,98078.47
2022-09-17T21:41:51.823Z,98079.81
2022-09-17T21:43:54.779Z,98089.78
2022-09-17T21:46:08.803Z,98088.91
2022-09-17T21:48:10.999Z,98088.78
2022-09-17T21:51:03.031Z,98092.91
2022-09-17T21:53:11.338Z,98093.91
2022-09-17T21:55:13.801Z,98092.50
2022-09-17T21:57:40.993Z,98092.06
2022-09-17T21:59:46.338Z,98083.75
2022-09-17T22:01:52.302Z,98069.19
2022-09-17T22:03:57.602Z,98072.03
2022-09-17T22:06:05.748Z,98056.88
2022-09-17T22:08:08.157Z,98064.19
2022-09-17T22:10:14.499Z,98071.03
2022-09-17T22:12:19.601Z,98071.75
2022-09-17T22:14:25.252Z,98067.88
2022-09-17T22:16:30.889Z,98077.59
2022-09-17T22:18:35.227Z,98085.03
2022-09-17T22:20:37.693Z,98090.47
2022-09-17T22:22:39.870Z,98099.03
2022-09-17T22:24:45.223Z,98096.72
2022-09-17T22:26:55.717Z,98096.25
2022-09-17T22:29:04.682Z,98085.69
2022-09-17T22:31:11.700Z,98087.63
2022-09-17T22:33:14.003Z,98094.75
2022-09-17T22:35:16.118Z,98081.00
2022-09-17T22:37:18.535Z,98081.84
2022-09-17T22:39:21.729Z,98080.84
2022-09-17T22:41:30.274Z,98089.41
2022-09-17T22:43:32.756Z,98069.63
2022-09-17T22:45:34.721Z,98084.91
2022-09-17T22:47:36.791Z,98090.47
2022-09-17T22:49:39.002Z,98094.63
2022-09-17T22:51:42.162Z,98101.31
2022-09-17T22:53:44.857Z,98111.56
2022-09-17T22:55:59.523Z,98120.59
2022-09-17T22:58:01.694Z,98115.94
2022-09-17T23:00:09.010Z,98126.03
2022-09-17T23:02:11.138Z,98116.78
2022-09-17T23:04:13.659Z,98111.03
2022-09-17T23:06:19.069Z,98110.03
2022-09-17T23:08:21.197Z,98110.13
2022-09-17T23:10:23.707Z,98119.28
2022-09-17T23:12:26.383Z,98129.13
2022-09-17T23:14:28.640Z,98134.44
2022-09-17T23:16:44.800Z,98133.97
2022-09-17T23:18:47.224Z,98132.50
2022-09-17T23:21:09.835Z,98139.19
2022-09-17T23:23:12.362Z,98136.13
2022-09-17T23:25:14.742Z,98139.69
2022-09-17T23:27:18.184Z,98138.97
2022-09-17T23:29:20.469Z,98141.22
2022-09-17T23:31:26.004Z,98135.19
2022-09-17T23:33:28.285Z,98152.56
2022-09-17T23:35:30.534Z,98150.69
2022-09-17T23:37:33.098Z,98151.97
2022-09-17T23:39:35.428Z,98166.00
2022-09-17T23:41:40.897Z,98166.28
2022-09-17T23:43:45.895Z,98165.03
2022-09-17T23:45:56.811Z,98171.09
2022-09-17T23:47:59.239Z,98171.09
2022-09-17T23:50:01.667Z,98171.97
2022-09-17T23:52:04.297Z,98171.97
2022-09-17T23:54:07.516Z,98186.63
2022-09-17T23:56:19.346Z,98197.72
2022-09-17T23:58:21.666Z,98192.31
